Time;durP1;ratioP1;P1;durP2;ratioP2;P2;SDS_P1;SDS_P2;PMS_P1;PMS_P2;Temp;Humidity;BMP_temperature;BMP_pressure;BME280_temperature;BME280_humidity;BME280_pressure;Samples;Min_cycle;Max_cycle;Signal;HPM_P1;HPM_P2
2021/12/06 00:07:18;;;;;;;1999.90;999.90;;;;;;;3.39;79.16;100688.72;15855627;28;20062;-67
2021/12/06 00:14:52;;;;;;;1999.90;999.90;;;;;;;3.45;79.71;100686.75;15809657;28;20039;-67
2021/12/06 00:22:24;;;;;;;1999.90;999.90;;;;;;;3.16;80.56;100684.72;15851653;28;20131;-66
2021/12/06 00:29:58;;;;;;;1999.90;999.90;;;;;;;3.27;80.55;100687.44;15845498;28;20473;-66
2021/12/06 00:37:40;;;;;;;1999.90;999.90;;;;;;;3.28;80.01;100689.91;15811031;28;20054;-67
2021/12/06 00:45:15;;;;;;;1999.90;999.90;;;;;;;3.58;79.44;100685.28;15838675;28;20058;-66
2021/12/06 00:52:49;;;;;;;1999.90;999.90;;;;;;;3.67;78.83;100700.94;15817282;28;20143;-66
2021/12/06 01:00:26;;;;;;;1999.90;999.90;;;;;;;3.63;79.11;100715.59;15860551;28;20039;-66
2021/12/06 01:07:59;;;;;;;1999.90;999.90;;;;;;;3.34;79.55;100735.66;15806482;28;20043;-66
2021/12/06 01:15:35;;;;;;;1999.90;999.90;;;;;;;3.24;79.79;100743.16;15835515;28;20052;-66
2021/12/06 01:23:12;;;;;;;1999.90;999.90;;;;;;;3.25;79.28;100753.91;15845443;28;20433;-65
2021/12/06 01:30:58;;;;;;;1999.90;999.90;;;;;;;3.48;78.63;100774.47;15828470;28;20040;-66
2021/12/06 01:46:24;;;;;;;1999.90;999.90;;;;;;;3.30;79.69;100789.72;15834656;28;20044;-65
2021/12/06 01:53:57;;;;;;;1999.90;999.90;;;;;;;3.22;79.21;100797.75;15862372;28;20054;-65
2021/12/06 02:01:31;;;;;;;1999.90;999.90;;;;;;;3.12;79.23;100799.44;15828225;28;20044;-65
2021/12/06 02:09:07;;;;;;;1999.90;999.90;;;;;;;3.22;78.75;100803.25;15834583;28;20046;-66
2021/12/06 02:16:57;;;;;;;1999.90;999.90;;;;;;;3.39;78.43;100796.31;15861374;28;20032;-66
2021/12/06 02:24:34;;;;;;;1999.90;999.90;;;;;;;3.32;78.17;100811.50;15841398;28;20507;-65
2021/12/06 02:32:11;;;;;;;1999.90;999.90;;;;;;;3.31;77.75;100807.09;15807477;28;20112;-66
2021/12/06 02:39:46;;;;;;;1999.90;999.90;;;;;;;3.54;77.07;100797.31;15837219;28;20040;-65
2021/12/06 02:47:20;;;;;;;1999.90;999.90;;;;;;;3.09;77.71;100799.19;15846428;28;20080;-66
2021/12/06 02:54:57;;;;;;;1999.90;999.90;;;;;;;3.39;76.46;100812.84;15841064;28;20096;-65
2021/12/06 03:02:31;;;;;;;1999.90;999.90;;;;;;;3.05;76.05;100817.41;15846247;28;20631;-66
2021/12/06 03:10:08;;;;;;;1999.90;999.90;;;;;;;3.07;75.79;100837.25;15823579;28;20044;-66
2021/12/06 03:17:42;;;;;;;1999.90;999.90;;;;;;;3.16;75.47;100832.81;15868629;28;20040;-65
2021/12/06 03:25:19;;;;;;;1999.90;999.90;;;;;;;2.87;76.33;100854.66;15818986;28;20070;-65
2021/12/06 03:32:52;;;;;;;1999.90;999.90;;;;;;;2.53;76.50;100849.75;15809196;28;20040;-65
2021/12/06 03:40:28;;;;;;;1999.90;999.90;;;;;;;2.42;77.16;100869.31;15846510;28;20032;-65
2021/12/06 03:48:00;;;;;;;1999.90;999.90;;;;;;;2.42;77.78;100870.13;15834728;28;20519;-66
2021/12/06 03:55:35;;;;;;;1999.90;999.90;;;;;;;2.58;76.75;100877.28;15837733;28;20096;-65
2021/12/06 04:03:10;;;;;;;1999.90;999.90;;;;;;;2.61;76.73;100881.44;15815224;28;20048;-65
2021/12/06 04:10:45;;;;;;;1999.90;999.90;;;;;;;2.66;76.24;100902.63;15828739;28;20067;-66
2021/12/06 04:18:18;;;;;;;1999.90;999.90;;;;;;;2.58;76.29;100924.09;15819641;28;20056;-66
2021/12/06 04:25:52;;;;;;;1999.90;999.90;;;;;;;2.53;76.45;100926.06;15871894;28;20067;-66
2021/12/06 04:33:27;;;;;;;1999.90;999.90;;;;;;;2.67;76.25;100938.16;15813506;28;20044;-65
2021/12/06 04:41:01;;;;;;;1999.90;999.90;;;;;;;3.04;75.68;100946.16;15824583;28;20051;-65
2021/12/06 04:48:34;;;;;;;1999.90;999.90;;;;;;;2.89;74.96;100958.00;15830276;28;20106;-66
2021/12/06 04:56:15;;;;;;;1999.90;999.90;;;;;;;3.14;75.01;100957.19;15863253;28;20108;-66
2021/12/06 05:03:51;;;;;;;1999.90;999.90;;;;;;;3.04;75.39;100964.63;15842908;28;20039;-66
2021/12/06 05:11:30;;;;;;;1999.90;999.90;;;;;;;3.17;74.17;100964.88;15800866;28;20052;-65
2021/12/06 05:19:06;;;;;;;1999.90;999.90;;;;;;;3.02;75.39;100962.16;15830549;28;20043;-66
2021/12/06 05:26:40;;;;;;;1999.90;999.90;;;;;;;3.02;75.41;100977.84;15839297;28;20447;-65
2021/12/06 05:34:19;;;;;;;1999.90;999.90;;;;;;;2.72;76.44;100986.97;15832533;28;20069;-66
2021/12/06 05:41:53;;;;;;;1999.90;999.90;;;;;;;3.15;75.45;101000.19;15823329;28;20039;-66
2021/12/06 05:49:27;;;;;;;1999.90;999.90;;;;;;;3.26;74.61;101000.19;15809448;28;20063;-66
2021/12/06 05:57:01;;;;;;;1999.90;999.90;;;;;;;3.07;75.60;101017.28;15841944;28;20089;-66
2021/12/06 06:04:34;;;;;;;1999.90;999.90;;;;;;;3.03;75.66;101024.47;15831506;28;20048;-65
2021/12/06 06:12:09;;;;;;;1999.90;999.90;;;;;;;3.23;74.93;101031.91;15844212;28;20093;-65
2021/12/06 06:19:47;;;;;;;1999.90;999.90;;;;;;;3.03;75.23;101038.25;15842373;28;20043;-64
2021/12/06 06:27:21;;;;;;;1999.90;999.90;;;;;;;3.02;74.89;101047.63;15832650;28;20473;-66
2021/12/06 06:34:54;;;;;;;1999.90;999.90;;;;;;;3.18;74.43;101067.75;15838265;28;20039;-65
2021/12/06 06:42:28;;;;;;;1999.90;999.90;;;;;;;3.05;75.20;101068.31;15817904;28;20127;-66
2021/12/06 06:50:01;;;;;;;1999.90;999.90;;;;;;;3.07;75.33;101072.44;15827474;28;20043;-66
2021/12/06 06:57:35;;;;;;;1999.90;999.90;;;;;;;3.59;73.23;101087.88;15842231;28;20039;-66
2021/12/06 07:05:08;;;;;;;1999.90;999.90;;;;;;;3.36;74.26;101094.78;15855714;28;20535;-66
2021/12/06 07:12:45;;;;;;;1999.90;999.90;;;;;;;3.65;73.51;101106.09;15793882;28;20074;-65
2021/12/06 07:20:22;;;;;;;1999.90;999.90;;;;;;;3.75;73.28;101116.28;15813934;28;20067;-69
2021/12/06 07:27:58;;;;;;;1999.90;999.90;;;;;;;3.89;73.36;101113.78;15857995;27;20650;-63
2021/12/06 07:35:31;;;;;;;1999.90;999.90;;;;;;;3.73;73.43;101110.22;15875134;28;20071;-61
2021/12/06 07:43:05;;;;;;;1999.90;999.90;;;;;;;3.95;72.48;101132.81;15870954;27;20122;-62
2021/12/06 07:50:38;;;;;;;1999.90;999.90;;;;;;;3.90;72.84;101121.78;15873015;28;20044;-61
2021/12/06 07:58:12;;;;;;;1999.90;999.90;;;;;;;3.85;73.25;101118.19;15870129;28;20051;-64
2021/12/06 08:05:47;;;;;;;1999.90;999.90;;;;;;;4.04;73.23;101130.31;15853222;28;20055;-64
2021/12/06 08:13:25;;;;;;;1999.90;999.90;;;;;;;4.23;72.59;101134.13;15870420;27;20112;-63
2021/12/06 08:20:59;;;;;;;1999.90;999.90;;;;;;;4.35;72.30;101131.88;15862619;28;20489;-63
2021/12/06 08:28:34;;;;;;;1999.90;999.90;;;;;;;4.33;72.12;101145.16;15814842;28;20036;-66
2021/12/06 08:36:11;;;;;;;1999.90;999.90;;;;;;;4.50;71.53;101147.59;15804525;28;20098;-65
2021/12/06 08:43:46;;;;;;;1999.90;999.90;;;;;;;4.61;72.19;101149.22;15808847;28;20046;-65
2021/12/06 08:51:21;;;;;;;1999.90;999.90;;;;;;;4.70;72.20;101151.41;15865632;28;20048;-65
2021/12/06 08:58:57;;;;;;;1999.90;999.90;;;;;;;4.83;72.28;101165.44;15828960;28;20127;-64
2021/12/06 09:06:29;;;;;;;1999.90;999.90;;;;;;;5.01;71.88;101175.03;15850496;28;20056;-65
2021/12/06 09:14:04;;;;;;;1999.90;999.90;;;;;;;5.14;70.40;101173.56;15850764;28;20143;-64
2021/12/06 09:21:37;;;;;;;1999.90;999.90;;;;;;;5.01;72.03;101176.97;15853347;28;20044;-64
2021/12/06 09:29:12;;;;;;;1999.90;999.90;;;;;;;5.48;70.93;101179.16;15852798;28;20074;-64
2021/12/06 09:36:46;;;;;;;1999.90;999.90;;;;;;;5.73;70.43;101176.19;15864121;28;20044;-64
2021/12/06 09:44:21;;;;;;;1999.90;999.90;;;;;;;5.66;69.19;101186.78;15858291;28;20047;-64
2021/12/06 09:51:58;;;;;;;1999.90;999.90;;;;;;;5.71;68.85;101191.44;15864036;28;20460;-64
2021/12/06 09:59:36;;;;;;;1999.90;999.90;;;;;;;6.04;69.03;101187.03;15864977;28;20503;-64
2021/12/06 10:07:11;;;;;;;1999.90;999.90;;;;;;;5.65;71.00;101187.06;15847810;28;20130;-64
2021/12/06 10:14:46;;;;;;;1999.90;999.90;;;;;;;5.84;70.00;101178.88;15854813;28;20044;-64
2021/12/06 10:22:21;;;;;;;1999.90;999.90;;;;;;;6.01;68.84;101174.59;15851712;28;20051;-65
2021/12/06 10:30:03;;;;;;;1999.90;999.90;;;;;;;5.98;69.59;101177.94;15846649;28;20152;-63
2021/12/06 10:37:45;;;;;;;1999.90;999.90;;;;;;;6.16;69.61;101170.03;15865514;28;20040;-64
2021/12/06 10:45:21;;;;;;;1999.90;999.90;;;;;;;6.14;69.64;101155.63;15847137;28;20051;-64
2021/12/06 10:52:57;;;;;;;1999.90;999.90;;;;;;;6.45;68.16;101145.03;15862779;28;20044;-65
2021/12/06 11:00:35;;;;;;;1999.90;999.90;;;;;;;6.61;66.68;101149.28;15864277;28;20047;-63
2021/12/06 11:08:10;;;;;;;1999.90;999.90;;;;;;;6.53;67.03;101139.66;15875262;28;20043;-63
2021/12/06 11:15:57;;;;;;;1999.90;999.90;;;;;;;6.65;67.12;101145.59;15875279;28;20118;-64
2021/12/06 11:23:30;;;;;;;1999.90;999.90;;;;;;;6.22;67.83;101141.13;15872041;28;20508;-64
2021/12/06 11:31:06;;;;;;;1999.90;999.90;;;;;;;6.05;68.30;101130.53;15871516;28;20040;-64
2021/12/06 11:38:38;;;;;;;1999.90;999.90;;;;;;;6.31;67.42;101126.34;15874611;28;20123;-65
2021/12/06 11:46:12;;;;;;;1999.90;999.90;;;;;;;6.58;66.91;101120.19;15873883;28;20039;-65
2021/12/06 11:53:50;;;;;;;1999.90;999.90;;;;;;;6.07;68.19;101114.41;15855730;28;20054;-66
2021/12/06 12:01:26;;;;;;;1999.90;999.90;;;;;;;6.56;66.85;101119.66;15837546;28;20046;-65
2021/12/06 12:09:08;;;;;;;1999.90;999.90;;;;;;;6.66;67.04;101127.84;15869026;28;20047;-65
2021/12/06 12:16:41;;;;;;;1999.90;999.90;;;;;;;6.62;66.55;101128.75;15850657;28;20505;-65
2021/12/06 12:24:14;;;;;;;1999.90;999.90;;;;;;;6.54;66.17;101123.84;15808511;28;20043;-65
2021/12/06 12:31:51;;;;;;;1999.90;999.90;;;;;;;6.33;68.35;101131.59;15808085;28;20074;-65
2021/12/06 12:39:24;;;;;;;1999.90;999.90;;;;;;;6.23;69.01;101138.06;15807835;28;20040;-64
2021/12/06 12:46:58;;;;;;;;;;;;;;;6.30;68.26;101133.00;15805382;28;20044;-65
2021/12/06 12:54:31;;;;;;;;;;;;;;;6.23;69.38;101134.47;15819376;28;19958;-64
2021/12/06 13:02:24;;;;;;;1999.90;999.90;;;;;;;6.06;69.16;101126.63;15888495;28;20018;-66
2021/12/06 13:10:19;;;;;;;1999.90;999.90;;;;;;;5.47;70.82;101134.03;15882329;28;20136;-65
2021/12/06 13:18:06;;;;;;;1999.90;999.90;;;;;;;5.79;70.38;101135.44;15866634;28;20066;-65
2021/12/06 13:26:10;;;;;;;1999.90;999.90;;;;;;;5.49;70.98;101114.38;15871951;28;20122;-65
2021/12/06 13:33:53;;;;;;;1999.90;999.90;;;;;;;5.74;71.13;101114.16;15869657;28;20048;-64
2021/12/06 13:41:29;;;;;;;1999.90;999.90;;;;;;;5.69;69.87;101108.66;15854001;28;20051;-63
2021/12/06 13:49:08;;;;;;;1999.90;999.90;;;;;;;6.06;68.69;101112.78;15849510;28;20043;-65
2021/12/06 13:56:45;;;;;;;1999.90;999.90;;;;;;;5.90;68.87;101108.47;15855199;28;20054;-63
2021/12/06 14:04:23;;;;;;;1999.90;999.90;;;;;;;6.05;68.34;101119.44;15866677;28;20408;-64
2021/12/06 14:11:57;;;;;;;1999.90;999.90;;;;;;;5.63;69.73;101126.44;15866494;28;20044;-65
2021/12/06 14:19:32;;;;;;;1999.90;999.90;;;;;;;5.85;69.20;101120.44;15867117;28;20075;-65
2021/12/06 14:27:07;;;;;;;1999.90;999.90;;;;;;;5.37;71.51;101122.22;15865236;28;20223;-65
2021/12/06 14:34:42;;;;;;;1999.90;999.90;;;;;;;5.39;70.98;101115.28;15829848;28;20044;-66
2021/12/06 14:42:17;;;;;;;1999.90;999.90;;;;;;;5.36;71.94;101121.41;15817966;28;20044;-66
2021/12/06 14:49:52;;;;;;;1999.90;999.90;;;;;;;5.43;70.88;101132.16;15817196;28;20109;-66
2021/12/06 14:57:28;;;;;;;1999.90;999.90;;;;;;;5.41;70.35;101132.41;15824867;28;20589;-66
2021/12/06 15:05:04;;;;;;;1999.90;999.90;;;;;;;5.12;71.58;101134.31;15821279;28;20068;-66
2021/12/06 15:12:37;;;;;;;1999.90;999.90;;;;;;;5.40;69.98;101132.69;15870193;28;20488;-65
2021/12/06 15:20:12;;;;;;;1999.90;999.90;;;;;;;5.41;70.59;101145.44;15820069;28;20036;-67
2021/12/06 15:27:44;;;;;;;1999.90;999.90;;;;;;;5.36;71.16;101134.41;15819558;28;20040;-66
2021/12/06 15:35:27;;;;;;;1999.90;999.90;;;;;;;5.11;71.33;101135.41;15850821;28;20130;-66
2021/12/06 15:43:06;;;;;;;1999.90;999.90;;;;;;;4.79;73.24;101135.84;15865177;27;20097;-66
2021/12/06 15:50:40;;;;;;;1999.90;999.90;;;;;;;5.11;71.94;101132.66;15862265;28;20043;-68
2021/12/06 15:58:19;;;;;;;1999.90;999.90;;;;;;;5.03;72.01;101128.53;15834356;28;20046;-67
2021/12/06 16:05:56;;;;;;;1999.90;999.90;;;;;;;5.03;71.90;101130.47;15868115;28;20104;-66
2021/12/06 16:13:31;;;;;;;1999.90;999.90;;;;;;;4.93;71.57;101125.84;15851829;28;20047;-68
2021/12/06 16:21:08;;;;;;;1999.90;999.90;;;;;;;4.97;72.80;101124.13;15862441;28;20685;-66
2021/12/06 16:28:47;;;;;;;1999.90;999.90;;;;;;;4.97;72.48;101118.59;15863623;28;20043;-67
2021/12/06 16:36:26;;;;;;;1999.90;999.90;;;;;;;4.66;73.63;101125.41;15850974;28;20093;-67
2021/12/06 16:44:00;;;;;;;1999.90;999.90;;;;;;;4.54;73.41;101126.56;15834024;28;20028;-64
2021/12/06 16:51:38;;;;;;;1999.90;999.90;;;;;;;4.94;72.70;101133.03;15823168;28;20047;-67
2021/12/06 16:59:14;;;;;;;1999.90;999.90;;;;;;;5.00;71.56;101125.50;15840573;28;20043;-66
2021/12/06 17:06:49;;;;;;;1999.90;999.90;;;;;;;4.84;71.73;101113.72;15843947;28;20032;-67
2021/12/06 17:14:25;;;;;;;1999.90;999.90;;;;;;;4.58;73.62;101107.47;15836346;28;20718;-66
2021/12/06 17:22:07;;;;;;;1999.90;999.90;;;;;;;4.57;73.82;101103.88;15848443;28;20405;-67
2021/12/06 17:29:42;;;;;;;1999.90;999.90;;;;;;;4.91;72.08;101109.53;15822623;28;20054;-66
2021/12/06 17:37:16;;;;;;;1999.90;999.90;;;;;;;4.53;72.05;101104.75;15829297;28;20408;-68
2021/12/06 17:44:52;;;;;;;1999.90;999.90;;;;;;;4.40;72.68;101097.06;15797044;28;20516;-66
2021/12/06 17:52:26;;;;;;;1999.90;999.90;;;;;;;3.98;73.22;101090.84;15798993;28;20052;-67
2021/12/06 18:00:00;;;;;;;1999.90;999.90;;;;;;;3.82;73.75;101091.16;15796219;28;20048;-64
2021/12/06 18:07:34;;;;;;;1999.90;999.90;;;;;;;3.92;73.43;101078.16;15843746;28;20791;-67
2021/12/06 18:15:08;;;;;;;1999.90;999.90;;;;;;;3.71;74.22;101074.63;15854450;28;20060;-67
2021/12/06 18:22:43;;;;;;;1999.90;999.90;;;;;;;3.68;74.67;101075.19;15798422;28;20591;-62
2021/12/06 18:30:19;;;;;;;1999.90;999.90;;;;;;;4.15;73.04;101062.06;15832484;28;20044;-64
2021/12/06 18:37:53;;;;;;;1999.90;999.90;;;;;;;4.03;72.94;101056.88;15849568;28;20059;-65
2021/12/06 18:45:33;;;;;;;1999.90;999.90;;;;;;;3.82;74.61;101047.00;15846808;28;20067;-65
2021/12/06 18:53:12;;;;;;;1999.90;999.90;;;;;;;3.81;74.34;101048.94;15836768;28;20047;-65
2021/12/06 19:00:45;;;;;;;1999.90;999.90;;;;;;;4.00;73.98;101038.94;15832548;28;20036;-70
2021/12/06 19:08:20;;;;;;;1999.90;999.90;;;;;;;3.73;74.65;101047.56;15818091;28;20053;-67
2021/12/06 19:15:52;;;;;;;1999.90;999.90;;;;;;;3.47;75.39;101038.50;15853574;28;20593;-68
2021/12/06 19:23:27;;;;;;;1999.90;999.90;;;;;;;3.67;75.53;101039.59;15847632;28;20129;-67
2021/12/06 19:31:02;;;;;;;1999.90;999.90;;;;;;;3.56;75.91;101040.72;15846077;28;20093;-69
2021/12/06 19:38:37;;;;;;;1999.90;999.90;;;;;;;3.59;75.46;101026.34;15833337;28;20048;-65
2021/12/06 19:46:09;;;;;;;1999.90;999.90;;;;;;;3.16;77.64;101015.63;15837326;28;20117;-68
2021/12/06 19:53:45;;;;;;;1999.90;999.90;;;;;;;3.54;76.61;101016.13;15861936;27;20040;-68
2021/12/06 20:01:18;;;;;;;1999.90;999.90;;;;;;;3.31;76.49;101002.94;15859343;28;20139;-68
2021/12/06 20:08:53;;;;;;;1999.90;999.90;;;;;;;3.39;77.00;101000.44;15861481;28;20044;-66
2021/12/06 20:16:25;;;;;;;1999.90;999.90;;;;;;;3.52;76.44;101007.31;15839278;28;20051;-67
2021/12/06 20:24:00;;;;;;;1999.90;999.90;;;;;;;3.66;76.06;100999.28;15849171;28;20066;-66
2021/12/06 20:31:33;;;;;;;1999.90;999.90;;;;;;;3.93;74.27;100996.16;15857716;28;20020;-66
2021/12/06 20:39:09;;;;;;;1999.90;999.90;;;;;;;3.99;74.40;100984.00;15861179;28;20113;-65
2021/12/06 20:46:42;;;;;;;1999.90;999.90;;;;;;;3.93;74.29;100982.34;15812525;28;20051;-66
2021/12/06 20:54:16;;;;;;;1999.90;999.90;;;;;;;4.04;73.88;100972.91;15846360;28;20063;-68
2021/12/06 21:01:52;;;;;;;1999.90;999.90;;;;;;;3.26;76.87;100973.44;15829401;28;20028;-66
2021/12/06 21:09:28;;;;;;;1999.90;999.90;;;;;;;3.24;77.35;100970.13;15824729;28;20043;-66
2021/12/06 21:17:01;;;;;;;1999.90;999.90;;;;;;;3.80;74.97;100963.63;15823659;28;20044;-68
2021/12/06 21:24:37;;;;;;;1999.90;999.90;;;;;;;3.86;74.50;100960.59;15825029;28;20718;-67
2021/12/06 21:32:09;;;;;;;1999.90;999.90;;;;;;;3.68;74.93;100953.75;15842602;28;20444;-66
2021/12/06 21:39:44;;;;;;;1999.90;999.90;;;;;;;3.72;74.44;100960.34;15824115;28;20054;-66
2021/12/06 21:47:18;;;;;;;1999.90;999.90;;;;;;;3.72;74.64;100959.50;15822859;28;20054;-67
2021/12/06 21:54:52;;;;;;;1999.90;999.90;;;;;;;3.54;74.40;100955.41;15834464;28;20457;-66
2021/12/06 22:02:28;;;;;;;1999.90;999.90;;;;;;;3.44;75.21;100953.53;15852883;28;20044;-66
2021/12/06 22:10:02;;;;;;;1999.90;999.90;;;;;;;3.17;76.41;100953.03;15846912;28;20044;-67
2021/12/06 22:17:35;;;;;;;1999.90;999.90;;;;;;;3.00;76.55;100942.28;15840201;28;20055;-67
2021/12/06 22:25:10;;;;;;;1999.90;999.90;;;;;;;3.00;76.33;100938.72;15820810;28;20040;-67
2021/12/06 22:32:46;;;;;;;1999.90;999.90;;;;;;;2.66;77.60;100924.66;15825568;28;20059;-66
2021/12/06 22:40:22;;;;;;;1999.90;999.90;;;;;;;2.50;77.39;100924.69;15843565;28;20476;-66
2021/12/06 22:47:56;;;;;;;1999.90;999.90;;;;;;;2.54;76.76;100919.44;15801166;28;20047;-67
2021/12/06 22:55:30;;;;;;;;;;;;;;;2.68;76.62;100914.19;15841715;28;20504;-66
2021/12/06 23:03:05;;;;;;;1999.90;999.90;;;;;;;2.29;78.28;100910.06;15873040;28;19972;-68
2021/12/06 23:10:39;;;;;;;1999.90;999.90;;;;;;;2.12;79.91;100881.09;15856954;28;20050;-66
2021/12/06 23:18:12;;;;;;;1999.90;999.90;;;;;;;1.78;81.64;100883.50;15830958;28;20040;-64
2021/12/06 23:25:46;;;;;;;1999.90;999.90;;;;;;;1.99;80.92;100886.03;15814441;28;20464;-66
2021/12/06 23:33:18;;;;;;;1999.90;999.90;;;;;;;2.16;80.00;100872.00;15844214;28;20390;-65
2021/12/06 23:41:05;;;;;;;1999.90;999.90;;;;;;;2.21;80.40;100872.03;15826716;28;20036;-65
2021/12/06 23:48:38;;;;;;;1999.90;999.90;;;;;;;1.77;80.38;100857.91;15843272;28;20301;-66
2021/12/06 23:56:12;;;;;;;1999.90;999.90;;;;;;;1.58;81.22;100848.50;15863915;28;20044;-65
